Time;durP1;ratioP1;P1;durP2;ratioP2;P2;SDS_P1;SDS_P2;PMS_P1;PMS_P2;Temp;Humidity;BMP_temperature;BMP_pressure;BME280_temperature;BME280_humidity;BME280_pressure;Samples;Min_cycle;Max_cycle;Signal;HPM_P1;HPM_P2
2022/03/07 00:01:09;;;;;;;0.45;0.43;;;2.10;94.40;;;;;;5102447;28;20024;-70
2022/03/07 00:03:34;;;;;;;0.45;0.45;;;2.00;94.40;;;;;;5101479;28;20020;-71
2022/03/07 00:06:00;;;;;;;3.30;0.47;;;2.10;93.30;;;;;;5103522;28;20099;-70
2022/03/07 00:08:27;;;;;;;9.85;2.67;;;2.00;94.30;;;;;;5105380;28;20083;-80
2022/03/07 00:10:53;;;;;;;0.00;0.00;;;2.00;95.20;;;;;;5105770;28;20296;-70
2022/03/07 00:13:19;;;;;;;0.00;0.00;;;1.90;95.30;;;;;;5105151;28;20101;-70
2022/03/07 00:15:45;;;;;;;0.00;0.00;;;1.90;95.90;;;;;;5104875;28;20027;-72
2022/03/07 00:18:10;;;;;;;0.00;0.00;;;1.90;96.30;;;;;;5105703;28;20196;-71
2022/03/07 00:20:36;;;;;;;1.60;1.50;;;1.80;96.70;;;;;;5087069;28;20203;-71
2022/03/07 00:23:02;;;;;;;0.00;0.00;;;1.90;94.20;;;;;;5105794;28;20016;-71
2022/03/07 00:25:27;;;;;;;0.65;0.65;;;1.90;94.80;;;;;;5105052;28;20015;-80
2022/03/07 00:27:53;;;;;;;4.53;4.22;;;1.90;95.30;;;;;;5087264;28;20315;-71
2022/03/07 00:30:20;;;;;;;0.22;0.22;;;1.90;94.90;;;;;;5105877;28;20057;-72
2022/03/07 00:32:45;;;;;;;0.00;0.00;;;1.80;94.80;;;;;;5105155;28;20028;-72
2022/03/07 00:35:11;;;;;;;0.00;0.00;;;1.90;94.90;;;;;;5105419;28;20087;-72
2022/03/07 00:37:37;;;;;;;7.90;7.47;;;1.90;95.70;;;;;;5104398;28;20043;-72
2022/03/07 00:40:06;;;;;;;0.00;0.00;;;1.80;95.40;;;;;;5086779;28;20020;-72
2022/03/07 00:42:32;;;;;;;4.75;0.57;;;1.80;95.80;;;;;;5104843;28;20090;-74
2022/03/07 00:44:57;;;;;;;1.85;0.55;;;1.90;95.30;;;;;;5105263;28;20196;-71
2022/03/07 00:47:25;;;;;;;0.13;0.13;;;1.70;96.10;;;;;;5105334;28;20031;-72
2022/03/07 00:49:50;;;;;;;0.13;0.13;;;1.70;96.30;;;;;;5104623;28;20158;-71
2022/03/07 00:52:16;;;;;;;0.10;0.10;;;1.80;94.90;;;;;;5105022;28;20105;-71
2022/03/07 00:54:42;;;;;;;0.00;0.00;;;1.80;94.70;;;;;;5086603;28;20195;-71
2022/03/07 00:57:07;;;;;;;0.00;0.00;;;2.30;95.20;;;;;;5104561;28;20105;-72
2022/03/07 00:59:33;;;;;;;0.00;0.00;;;1.80;95.70;;;;;;5086267;28;20043;-73
2022/03/07 01:01:59;;;;;;;0.00;0.00;;;1.80;95.10;;;;;;5104906;28;20050;-71
2022/03/07 01:04:25;;;;;;;0.20;0.20;;;1.80;95.90;;;;;;5105179;28;20012;-71
2022/03/07 01:06:50;;;;;;;0.00;0.00;;;1.70;95.80;;;;;;5104466;28;20100;-72
2022/03/07 01:09:16;;;;;;;0.00;0.00;;;1.70;96.20;;;;;;5086503;28;20067;-72
2022/03/07 01:11:42;;;;;;;2.33;1.75;;;1.70;96.10;;;;;;5086294;28;20028;-75
2022/03/07 01:14:08;;;;;;;0.00;0.00;;;1.70;95.50;;;;;;5105069;28;20275;-74
2022/03/07 01:16:34;;;;;;;0.90;0.13;;;1.80;93.20;;;;;;5103449;28;20254;-78
2022/03/07 01:19:00;;;;;;;0.32;0.32;;;1.80;94.30;;;;;;5103922;28;20223;-74
2022/03/07 01:21:25;;;;;;;3.97;3.78;;;1.80;94.20;;;;;;5086195;28;20036;-75
2022/03/07 01:23:51;;;;;;;0.30;0.30;;;1.90;93.30;;;;;;5104115;28;20039;-75
2022/03/07 01:26:17;;;;;;;0.20;0.05;;;1.80;94.40;;;;;;5104272;28;20020;-74
2022/03/07 01:28:42;;;;;;;2.70;2.53;;;1.80;93.00;;;;;;5103830;28;20349;-75
2022/03/07 01:31:08;;;;;;;11.05;0.55;;;2.00;92.00;;;;;;5085069;28;20035;-75
2022/03/07 01:33:34;;;;;;;0.20;0.20;;;2.00;93.90;;;;;;5104326;28;20015;-74
2022/03/07 01:36:00;;;;;;;0.00;0.00;;;2.00;93.40;;;;;;5104308;28;20347;-74
2022/03/07 01:38:25;;;;;;;0.20;0.20;;;2.00;93.20;;;;;;5104035;28;20052;-73
2022/03/07 01:40:51;;;;;;;8.68;2.28;;;1.90;93.10;;;;;;5102985;28;20028;-73
2022/03/07 01:43:17;;;;;;;0.00;0.00;;;2.00;92.40;;;;;;5103798;28;20026;-72
2022/03/07 01:45:43;;;;;;;0.00;0.00;;;2.00;92.60;;;;;;5103697;28;20047;-72
2022/03/07 01:48:09;;;;;;;0.70;0.65;;;1.90;94.60;;;;;;5103859;28;20207;-72
2022/03/07 01:50:35;;;;;;;2.25;0.90;;;2.00;91.10;;;;;;5085134;28;20242;-81
2022/03/07 01:53:02;;;;;;;1.88;0.65;;;1.90;92.90;;;;;;5085772;28;20038;-71
2022/03/07 01:55:27;;;;;;;2.85;2.65;;;1.90;91.60;;;;;;5085944;28;20066;-71
2022/03/07 01:57:54;;;;;;;0.08;0.08;;;2.00;92.50;;;;;;5085407;28;20095;-72
2022/03/07 02:00:22;;;;;;;0.00;0.00;;;2.00;92.30;;;;;;5104135;28;20299;-72
2022/03/07 02:02:48;;;;;;;;;;;2.10;90.50;;;;;;5103670;28;20054;-76
2022/03/07 02:05:14;;;;;;;1.75;0.75;;;2.00;90.70;;;;;;5085891;28;19900;-71
2022/03/07 02:07:39;;;;;;;0.00;0.00;;;2.10;89.10;;;;;;5102691;28;20249;-72
2022/03/07 02:10:06;;;;;;;0.35;0.35;;;2.10;90.40;;;;;;5103689;28;20024;-71
2022/03/07 02:12:32;;;;;;;0.40;0.35;;;2.10;89.40;;;;;;5103586;28;20032;-71
2022/03/07 02:14:58;;;;;;;0.68;0.63;;;2.20;89.10;;;;;;5102800;28;20019;-72
2022/03/07 02:17:24;;;;;;;0.00;0.00;;;2.10;90.10;;;;;;5103600;28;20099;-72
2022/03/07 02:19:50;;;;;;;0.00;0.00;;;2.10;90.00;;;;;;5084886;28;20321;-72
2022/03/07 02:22:16;;;;;;;1.30;1.30;;;2.10;91.60;;;;;;5103102;28;20019;-71
2022/03/07 02:24:43;;;;;;;2.63;2.53;;;2.10;90.80;;;;;;5085163;28;20281;-72
2022/03/07 02:27:10;;;;;;;2.97;2.17;;;2.10;91.60;;;;;;5103109;28;20023;-72
2022/03/07 02:29:36;;;;;;;4.47;3.45;;;2.10;90.20;;;;;;5102124;28;20026;-81
2022/03/07 02:32:03;;;;;;;0.75;0.68;;;2.10;88.20;;;;;;5102870;28;20028;-73
2022/03/07 02:34:29;;;;;;;1.17;0.45;;;2.10;89.20;;;;;;5103517;28;20020;-73
2022/03/07 02:36:55;;;;;;;0.00;0.00;;;2.20;90.60;;;;;;5084133;28;20060;-73
2022/03/07 02:42:05;;;;;;;1.17;1.08;;;2.10;88.40;;;;;;5102900;28;20034;-72
2022/03/07 02:44:31;;;;;;;0.45;0.45;;;2.10;90.40;;;;;;5103193;28;20016;-73
2022/03/07 02:46:57;;;;;;;0.00;0.00;;;2.10;91.00;;;;;;5102172;28;20077;-74
2022/03/07 02:49:22;;;;;;;1.67;1.08;;;2.10;89.50;;;;;;5084756;28;20091;-72
2022/03/07 02:51:48;;;;;;;0.68;0.40;;;2.00;91.40;;;;;;5102500;28;20267;-74
2022/03/07 02:54:14;;;;;;;3.65;2.67;;;2.00;88.10;;;;;;5102223;28;20238;-77
2022/03/07 02:56:39;;;;;;;0.00;0.00;;;2.10;88.80;;;;;;5080336;28;20354;-81
2022/03/07 02:59:05;;;;;;;1.10;0.85;;;2.10;89.30;;;;;;5080968;28;20023;-77
2022/03/07 03:01:31;;;;;;;0.00;0.00;;;2.10;88.50;;;;;;5080380;28;20202;-77
2022/03/07 03:03:57;;;;;;;7.90;3.05;;;1.90;88.30;;;;;;5080466;28;20019;-74
2022/03/07 03:06:23;;;;;;;0.22;0.22;;;2.10;87.20;;;;;;5098560;28;20255;-74
2022/03/07 03:08:48;;;;;;;2.40;0.85;;;2.10;90.10;;;;;;5097638;28;20024;-72
2022/03/07 03:11:14;;;;;;;1.90;1.60;;;2.10;88.30;;;;;;5080748;28;20039;-79
2022/03/07 03:13:40;;;;;;;3.83;2.00;;;2.20;85.60;;;;;;5098279;28;20020;-78
2022/03/07 03:16:05;;;;;;;1.23;0.60;;;2.20;87.20;;;;;;5081752;28;20028;-72
2022/03/07 03:18:31;;;;;;;0.98;0.32;;;2.20;87.40;;;;;;5081309;28;20130;-72
2022/03/07 03:20:57;;;;;;;0.03;0.03;;;2.20;87.10;;;;;;5080433;28;20088;-72
2022/03/07 03:23:23;;;;;;;0.55;0.55;;;2.10;91.00;;;;;;5080839;28;20016;-73
2022/03/07 03:25:50;;;;;;;8.50;3.45;;;2.10;87.60;;;;;;5099211;28;20080;-71
2022/03/07 03:28:16;;;;;;;0.98;0.95;;;2.10;87.70;;;;;;5102364;28;20035;-72
2022/03/07 03:30:42;;;;;;;0.28;0.28;;;2.10;89.90;;;;;;5101359;28;20020;-71
2022/03/07 03:33:08;;;;;;;1.73;1.33;;;2.00;90.50;;;;;;5101593;28;20126;-70
2022/03/07 03:35:36;;;;;;;13.40;5.47;;;2.10;90.00;;;;;;5102644;28;20137;-72
2022/03/07 03:38:06;;;;;;;1.17;0.90;;;2.10;89.50;;;;;;5101955;28;20295;-72
2022/03/07 03:40:32;;;;;;;4.68;1.48;;;2.00;88.60;;;;;;5103572;28;20322;-72
2022/03/07 03:42:57;;;;;;;2.80;2.08;;;2.00;87.90;;;;;;5105740;28;20024;-72
2022/03/07 03:45:23;;;;;;;0.45;0.40;;;2.20;90.90;;;;;;5106280;28;20031;-72
2022/03/07 03:47:49;;;;;;;1.30;1.20;;;1.90;92.00;;;;;;5087882;28;20302;-72
2022/03/07 03:50:33;;;;;;;0.03;0.03;;;1.90;91.00;;;;;;5106323;28;20059;-73
2022/03/07 03:52:59;;;;;;;3.47;1.20;;;2.00;91.40;;;;;;5105404;28;20173;-73
2022/03/07 03:55:25;;;;;;;2.25;1.80;;;2.00;89.80;;;;;;5106222;28;20044;-72
2022/03/07 03:57:51;;;;;;;5.70;2.67;;;2.00;91.60;;;;;;5087660;28;20047;-73
2022/03/07 04:00:18;;;;;;;3.15;2.90;;;2.00;89.20;;;;;;5105980;28;20356;-73
2022/03/07 04:02:44;;;;;;;4.13;3.67;;;2.00;90.20;;;;;;5087367;28;20295;-71
2022/03/07 04:05:15;;;;;;;7.78;3.28;;;2.00;90.30;;;;;;5088237;28;20043;-72
2022/03/07 04:07:41;;;;;;;2.20;1.48;;;2.00;90.40;;;;;;5105372;28;20016;-82
2022/03/07 04:10:07;;;;;;;0.22;0.22;;;2.00;90.80;;;;;;5106269;28;20020;-73
2022/03/07 04:12:33;;;;;;;1.60;0.80;;;2.00;91.40;;;;;;5087042;28;20119;-72
2022/03/07 04:15:00;;;;;;;0.17;0.15;;;2.00;91.60;;;;;;5105408;28;20043;-73
2022/03/07 04:17:25;;;;;;;0.65;0.65;;;2.00;90.80;;;;;;5105787;28;20122;-72
2022/03/07 04:19:51;;;;;;;2.10;1.90;;;2.00;91.10;;;;;;5086929;28;20019;-73
2022/03/07 04:22:17;;;;;;;1.90;1.73;;;1.90;91.70;;;;;;5087881;28;20091;-73
2022/03/07 04:24:43;;;;;;;0.00;0.00;;;1.90;91.50;;;;;;5105236;28;20020;-81
2022/03/07 04:27:09;;;;;;;1.90;1.42;;;1.90;91.60;;;;;;5105584;28;20030;-72
2022/03/07 04:29:34;;;;;;;3.10;1.63;;;2.00;91.10;;;;;;5087571;28;20024;-72
2022/03/07 04:32:00;;;;;;;0.35;0.35;;;1.90;91.50;;;;;;5105074;28;20028;-72
2022/03/07 04:34:26;;;;;;;3.63;1.35;;;1.90;92.50;;;;;;5104397;28;20207;-76
2022/03/07 04:36:52;;;;;;;3.72;2.17;;;1.80;92.70;;;;;;5105367;28;20015;-71
2022/03/07 04:39:18;;;;;;;3.08;2.78;;;1.80;91.80;;;;;;5105755;28;20086;-71
2022/03/07 04:41:44;;;;;;;0.98;0.98;;;1.80;93.00;;;;;;5104633;28;20315;-78
2022/03/07 04:44:11;;;;;;;0.43;0.43;;;1.80;92.20;;;;;;5087381;28;20232;-72
2022/03/07 04:46:37;;;;;;;4.22;3.30;;;2.40;92.50;;;;;;5105097;28;20039;-72
2022/03/07 04:49:03;;;;;;;1.38;1.38;;;1.90;91.20;;;;;;5086655;28;20073;-73
2022/03/07 04:51:29;;;;;;;0.47;0.47;;;1.80;91.70;;;;;;5105102;28;20043;-71
2022/03/07 04:53:54;;;;;;;1.85;1.13;;;1.80;91.90;;;;;;5104149;28;20027;-71
2022/03/07 04:56:20;;;;;;;0.43;0.43;;;1.80;92.20;;;;;;5104817;28;20078;-72
2022/03/07 04:58:46;;;;;;;3.70;2.17;;;1.80;91.10;;;;;;5104832;28;20303;-81
2022/03/07 05:01:14;;;;;;;9.40;2.35;;;1.90;89.30;;;;;;5105019;28;20042;-72
2022/03/07 05:03:40;;;;;;;1.75;1.38;;;1.90;90.30;;;;;;5087149;28;20020;-72
2022/03/07 05:06:08;;;;;;;0.55;0.55;;;1.90;90.10;;;;;;5086570;28;20054;-70
2022/03/07 05:08:38;;;;;;;0.40;0.40;;;1.80;91.10;;;;;;5105002;28;20322;-70
2022/03/07 05:11:04;;;;;;;0.05;0.05;;;1.90;90.30;;;;;;5086517;28;20019;-70
2022/03/07 05:13:29;;;;;;;3.28;3.13;;;1.80;91.70;;;;;;5104773;28;20029;-70
2022/03/07 05:15:55;;;;;;;2.20;0.70;;;1.80;92.20;;;;;;5104688;28;20453;-70
2022/03/07 05:18:21;;;;;;;4.90;2.70;;;1.70;91.10;;;;;;5086493;28;20095;-70
2022/03/07 05:20:46;;;;;;;3.85;1.98;;;1.80;90.50;;;;;;5104541;28;20130;-82
2022/03/07 05:23:12;;;;;;;0.38;0.35;;;1.90;90.50;;;;;;5104682;28;20207;-71
2022/03/07 05:25:38;;;;;;;0.43;0.43;;;1.80;91.20;;;;;;5104678;28;20019;-71
2022/03/07 05:28:04;;;;;;;8.38;4.00;;;1.80;91.30;;;;;;5102674;28;20020;-72
2022/03/07 05:30:29;;;;;;;1.02;0.95;;;1.80;90.20;;;;;;5101641;28;20020;-72
2022/03/07 05:32:55;;;;;;;3.20;1.23;;;1.80;91.90;;;;;;5100997;28;20032;-72
2022/03/07 05:35:22;;;;;;;6.40;2.95;;;1.70;92.10;;;;;;5100683;28;20149;-79
2022/03/07 05:37:48;;;;;;;0.00;0.00;;;1.60;91.40;;;;;;5083280;28;20020;-81
2022/03/07 05:40:15;;;;;;;0.45;0.45;;;1.70;90.90;;;;;;5104024;28;20036;-71
2022/03/07 05:42:42;;;;;;;6.93;4.38;;;1.70;91.30;;;;;;5104328;28;20024;-71
2022/03/07 05:45:10;;;;;;;4.95;3.85;;;1.70;91.10;;;;;;5103566;28;20223;-72
2022/03/07 05:47:36;;;;;;;2.63;2.22;;;1.70;92.10;;;;;;5104154;28;20075;-73
2022/03/07 05:50:03;;;;;;;0.10;0.10;;;1.60;90.80;;;;;;5085342;28;20043;-71
2022/03/07 05:52:29;;;;;;;0.75;0.75;;;1.70;91.90;;;;;;5104262;28;20028;-73
2022/03/07 05:54:55;;;;;;;1.35;1.23;;;1.60;91.40;;;;;;5103409;28;20024;-72
2022/03/07 05:57:21;;;;;;;1.25;1.23;;;1.70;90.50;;;;;;5104200;28;20030;-71
2022/03/07 05:59:46;;;;;;;1.55;0.95;;;1.70;90.50;;;;;;5086141;28;20020;-80
2022/03/07 06:02:12;;;;;;;2.72;2.08;;;1.70;91.50;;;;;;5103465;28;20024;-72
2022/03/07 06:04:38;;;;;;;3.25;2.70;;;1.70;90.60;;;;;;5085454;28;20012;-72
2022/03/07 06:07:04;;;;;;;2.28;1.85;;;1.60;90.80;;;;;;5103243;28;20020;-72
2022/03/07 06:09:30;;;;;;;0.22;0.22;;;1.70;90.10;;;;;;5103831;28;20016;-71
2022/03/07 06:11:55;;;;;;;0.30;0.30;;;1.70;90.90;;;;;;5103225;28;20055;-72
2022/03/07 06:14:21;;;;;;;0.00;0.00;;;1.70;91.60;;;;;;5085579;28;20016;-72
2022/03/07 06:16:47;;;;;;;1.15;0.70;;;1.60;93.50;;;;;;5103592;28;20016;-72
2022/03/07 06:19:12;;;;;;;1.98;0.98;;;1.70;91.80;;;;;;5084988;28;20093;-74
2022/03/07 06:21:38;;;;;;;0.10;0.10;;;1.70;91.90;;;;;;5085611;28;20058;-71
2022/03/07 06:24:04;;;;;;;1.02;0.75;;;1.60;92.70;;;;;;5103058;28;20024;-72
2022/03/07 06:26:30;;;;;;;0.00;0.00;;;1.70;90.60;;;;;;5103360;28;20031;-71
2022/03/07 06:28:56;;;;;;;0.13;0.13;;;1.70;91.20;;;;;;5084765;28;20016;-74
2022/03/07 06:31:22;;;;;;;0.00;0.00;;;1.60;92.90;;;;;;5103495;28;20062;-80
2022/03/07 06:33:47;;;;;;;1.83;0.82;;;1.60;92.40;;;;;;5084875;28;20019;-72
2022/03/07 06:36:13;;;;;;;0.82;0.30;;;1.70;90.70;;;;;;5102598;28;20016;-79
2022/03/07 06:38:39;;;;;;;0.60;0.60;;;1.70;90.70;;;;;;5099982;28;20039;-74
2022/03/07 06:41:06;;;;;;;0.55;0.55;;;1.80;87.30;;;;;;5100400;28;20024;-82
2022/03/07 06:43:33;;;;;;;4.50;3.85;;;1.80;87.80;;;;;;5099610;28;20072;-75
2022/03/07 06:45:59;;;;;;;0.20;0.20;;;1.80;88.00;;;;;;5098625;28;20083;-73
2022/03/07 06:48:25;;;;;;;0.00;0.00;;;1.80;86.40;;;;;;5081420;28;20187;-82
2022/03/07 06:50:50;;;;;;;0.90;0.35;;;1.80;90.40;;;;;;5099335;28;20052;-80
2022/03/07 06:53:16;;;;;;;3.40;1.80;;;1.70;90.40;;;;;;5098173;28;20305;-70
2022/03/07 06:55:42;;;;;;;2.10;2.00;;;1.80;86.80;;;;;;5098742;28;20020;-76
2022/03/07 06:58:08;;;;;;;0.00;0.00;;;1.80;84.90;;;;;;5098208;28;20048;-73
2022/03/07 07:00:34;;;;;;;0.10;0.03;;;1.80;87.40;;;;;;5099334;28;20040;-76
2022/03/07 07:02:59;;;;;;;0.00;0.00;;;1.80;87.20;;;;;;5100047;28;20070;-71
2022/03/07 07:05:26;;;;;;;0.20;0.20;;;1.80;91.00;;;;;;5102669;28;20024;-72
2022/03/07 07:07:52;;;;;;;0.00;0.00;;;1.70;91.70;;;;;;5102357;28;20016;-79
2022/03/07 07:10:20;;;;;;;1.98;1.85;;;1.80;91.20;;;;;;5084459;28;20020;-73
2022/03/07 07:12:48;;;;;;;2.03;1.88;;;1.80;88.10;;;;;;5084629;28;20099;-73
2022/03/07 07:15:13;;;;;;;1.08;0.88;;;1.90;84.40;;;;;;5101190;28;20024;-73
2022/03/07 07:17:39;;;;;;;0.00;0.00;;;1.90;84.60;;;;;;5102407;28;20043;-72
2022/03/07 07:20:07;;;;;;;0.17;0.17;;;1.80;88.80;;;;;;5102114;28;20016;-73
2022/03/07 07:22:33;;;;;;;2.95;1.85;;;1.80;91.00;;;;;;5102943;28;20020;-72
2022/03/07 07:24:59;;;;;;;7.90;1.75;;;1.70;85.50;;;;;;5102324;28;20079;-71
2022/03/07 07:27:24;;;;;;;5.15;1.95;;;1.70;86.20;;;;;;5102916;28;20023;-74
2022/03/07 07:29:50;;;;;;;2.55;0.68;;;1.70;83.80;;;;;;5084932;28;20012;-72
2022/03/07 07:32:16;;;;;;;2.40;1.90;;;1.70;88.90;;;;;;5102698;28;20303;-73
2022/03/07 07:34:42;;;;;;;4.45;3.13;;;1.70;86.40;;;;;;5102567;28;20020;-74
2022/03/07 07:37:27;;;;;;;0.88;0.65;;;1.70;85.20;;;;;;5083736;28;20028;-74
2022/03/07 07:39:53;;;;;;;6.22;2.30;;;1.70;88.00;;;;;;5084311;28;20188;-80
2022/03/07 07:42:19;;;;;;;0.80;0.70;;;1.60;89.90;;;;;;5084561;28;20031;-74
2022/03/07 07:44:44;;;;;;;0.17;0.17;;;1.70;86.10;;;;;;5102783;28;20183;-74
2022/03/07 07:47:10;;;;;;;2.30;2.17;;;1.70;86.10;;;;;;5101934;28;20020;-72
2022/03/07 07:49:37;;;;;;;0.20;0.20;;;1.80;89.10;;;;;;5102578;28;20235;-72
2022/03/07 07:52:04;;;;;;;0.00;0.00;;;1.60;91.10;;;;;;5102283;28;20206;-74
2022/03/07 07:54:32;;;;;;;0.05;0.05;;;1.60;92.10;;;;;;5102653;28;20020;-73
2022/03/07 07:56:58;;;;;;;1.08;0.90;;;1.60;91.20;;;;;;5067992;28;20024;-72
2022/03/07 07:59:24;;;;;;;0.10;0.10;;;1.60;89.90;;;;;;5102325;28;20302;-74
2022/03/07 08:01:49;;;;;;;0.10;0.10;;;1.70;88.80;;;;;;5102308;28;20027;-73
2022/03/07 08:04:15;;;;;;;4.38;3.10;;;1.80;90.60;;;;;;5101675;28;20023;-72
2022/03/07 08:06:41;;;;;;;0.15;0.05;;;1.80;87.40;;;;;;5084187;28;20307;-72
2022/03/07 08:09:07;;;;;;;5.80;0.68;;;1.90;89.80;;;;;;5083940;28;20023;-72
2022/03/07 08:11:33;;;;;;;4.15;0.55;;;1.90;84.90;;;;;;5084086;28;20028;-71
2022/03/07 08:13:58;;;;;;;0.30;0.30;;;1.90;90.20;;;;;;5102007;28;20126;-70
2022/03/07 08:16:25;;;;;;;0.30;0.30;;;1.90;88.10;;;;;;5102404;28;20066;-71
2022/03/07 08:18:51;;;;;;;3.13;1.65;;;1.80;90.20;;;;;;5102281;28;20189;-71
2022/03/07 08:21:20;;;;;;;0.47;0.32;;;1.90;85.70;;;;;;5067166;28;20028;-72
2022/03/07 08:23:45;;;;;;;1.00;0.60;;;1.90;88.10;;;;;;5083744;28;20016;-71
2022/03/07 08:26:11;;;;;;;0.00;0.00;;;2.00;86.30;;;;;;5101619;28;20016;-71
2022/03/07 08:28:37;;;;;;;1.45;0.35;;;1.90;87.90;;;;;;5105060;28;20084;-71
2022/03/07 08:31:04;;;;;;;0.77;0.77;;;2.00;87.20;;;;;;5087537;28;20020;-71
2022/03/07 08:33:31;;;;;;;0.00;0.00;;;2.00;82.20;;;;;;5105554;28;20295;-71
2022/03/07 08:35:58;;;;;;;0.00;0.00;;;2.00;85.10;;;;;;5105430;28;20070;-75
2022/03/07 08:38:24;;;;;;;0.00;0.00;;;2.00;84.90;;;;;;5087770;28;20020;-71
2022/03/07 08:40:49;;;;;;;3.85;0.68;;;2.10;85.30;;;;;;5105788;28;20084;-71
2022/03/07 08:43:15;;;;;;;1.20;1.10;;;2.00;90.00;;;;;;5105425;28;20023;-71
2022/03/07 08:45:41;;;;;;;1.55;0.98;;;2.10;85.80;;;;;;5105481;28;20024;-72
2022/03/07 08:48:06;;;;;;;0.30;0.30;;;2.10;81.80;;;;;;5087200;28;20020;-72
2022/03/07 08:50:32;;;;;;;0.82;0.43;;;2.20;82.60;;;;;;5105179;28;20239;-71
2022/03/07 08:52:58;;;;;;;0.00;0.00;;;2.20;80.40;;;;;;5104423;28;20028;-73
2022/03/07 08:55:23;;;;;;;1.13;1.02;;;2.10;83.40;;;;;;5105219;28;20024;-72
2022/03/07 08:57:49;;;;;;;0.40;0.17;;;2.10;79.40;;;;;;5087472;28;20020;-75
2022/03/07 09:00:15;;;;;;;0.00;0.00;;;2.00;86.20;;;;;;5105253;28;20085;-70
2022/03/07 09:02:41;;;;;;;1.50;0.52;;;2.00;89.60;;;;;;5105321;28;20026;-72
2022/03/07 09:05:08;;;;;;;0.68;0.68;;;2.00;79.30;;;;;;5086829;28;20057;-70
2022/03/07 09:07:33;;;;;;;0.52;0.32;;;2.10;78.80;;;;;;5104917;28;20202;-72
2022/03/07 09:09:59;;;;;;;1.45;0.75;;;2.10;87.60;;;;;;5086937;28;20360;-73
2022/03/07 09:12:28;;;;;;;0.30;0.30;;;2.10;83.50;;;;;;5105336;28;20040;-72
2022/03/07 09:14:59;;;;;;;1.65;1.52;;;2.20;78.30;;;;;;5105378;28;20287;-71
2022/03/07 09:17:25;;;;;;;0.00;0.00;;;2.70;78.90;;;;;;5087138;28;20131;-72
2022/03/07 09:19:52;;;;;;;0.95;0.52;;;2.20;87.70;;;;;;5105068;28;20299;-72
2022/03/07 09:22:19;;;;;;;0.25;0.25;;;2.10;82.00;;;;;;5104716;28;20358;-72
2022/03/07 09:24:45;;;;;;;0.45;0.30;;;2.10;90.60;;;;;;5087026;28;20028;-72
2022/03/07 09:27:11;;;;;;;0.20;0.20;;;2.20;81.90;;;;;;5104739;28;20053;-72
2022/03/07 09:29:37;;;;;;;6.60;4.22;;;2.30;84.00;;;;;;5103835;28;20020;-71
2022/03/07 09:32:05;;;;;;;0.40;0.35;;;2.40;84.00;;;;;;5104651;28;20028;-72
2022/03/07 09:34:31;;;;;;;;;;;2.40;81.00;;;;;;5087444;28;20024;-70
2022/03/07 09:36:57;;;;;;;3.40;3.20;;;2.60;78.00;;;;;;5086539;28;19939;-75
2022/03/07 09:39:23;;;;;;;0.00;0.00;;;2.60;84.40;;;;;;5103566;28;20020;-72
2022/03/07 09:41:49;;;;;;;0.77;0.77;;;2.60;83.40;;;;;;5104210;28;20024;-72
2022/03/07 09:44:14;;;;;;;0.08;0.03;;;2.70;79.10;;;;;;5103915;28;20333;-72
2022/03/07 09:46:40;;;;;;;0.00;0.00;;;2.70;77.20;;;;;;5086399;28;20020;-72
2022/03/07 09:49:06;;;;;;;0.15;0.15;;;2.60;83.40;;;;;;5103582;28;20015;-72
2022/03/07 09:51:31;;;;;;;0.00;0.00;;;2.70;78.40;;;;;;5086046;28;20115;-72
2022/03/07 09:53:57;;;;;;;0.38;0.38;;;2.80;82.30;;;;;;5103956;28;20069;-74
2022/03/07 09:56:23;;;;;;;10.75;10.07;;;2.80;79.00;;;;;;5085568;28;20202;-72
2022/03/07 09:58:49;;;;;;;0.15;0.15;;;2.80;75.00;;;;;;5104296;28;20016;-74
2022/03/07 10:01:19;;;;;;;1.38;0.63;;;2.90;79.70;;;;;;5103225;28;20021;-71
2022/03/07 10:03:45;;;;;;;0.20;0.20;;;2.90;81.10;;;;;;5104501;28;20018;-71
2022/03/07 10:06:19;;;;;;;0.00;0.00;;;2.90;83.50;;;;;;5085581;28;20024;-72
2022/03/07 10:09:00;;;;;;;0.10;0.10;;;3.00;82.50;;;;;;5104303;28;20020;-72
2022/03/07 10:11:28;;;;;;;0.00;0.00;;;3.00;80.10;;;;;;5085504;28;20093;-72
2022/03/07 10:13:59;;;;;;;0.60;0.60;;;3.10;86.90;;;;;;5103738;28;20250;-71
2022/03/07 10:16:39;;;;;;;2.67;0.70;;;3.10;76.20;;;;;;5103385;28;20069;-72
2022/03/07 10:19:10;;;;;;;0.38;0.28;;;3.10;79.70;;;;;;5102806;28;20020;-72
2022/03/07 10:21:36;;;;;;;0.00;0.00;;;3.10;78.10;;;;;;5103101;28;20083;-73
2022/03/07 10:24:02;;;;;;;0.20;0.20;;;3.10;81.80;;;;;;5085346;28;20016;-73
2022/03/07 10:26:34;;;;;;;0.00;0.00;;;3.00;89.40;;;;;;5103593;28;20047;-73
2022/03/07 10:29:02;;;;;;;0.47;0.30;;;3.00;90.00;;;;;;5103505;28;20024;-73
2022/03/07 10:31:29;;;;;;;0.00;0.00;;;3.10;75.70;;;;;;5068634;28;20048;-72
2022/03/07 10:34:04;;;;;;;0.00;0.00;;;3.10;82.10;;;;;;5102982;28;20023;-73
2022/03/07 10:36:32;;;;;;;1.55;1.55;;;3.10;84.10;;;;;;5103382;28;20023;-73
2022/03/07 10:38:57;;;;;;;0.70;0.70;;;3.00;84.40;;;;;;5103024;28;20207;-73
2022/03/07 10:41:37;;;;;;;0.00;0.00;;;3.20;80.00;;;;;;5084620;28;20059;-73
2022/03/07 10:44:11;;;;;;;1.73;1.33;;;3.20;78.50;;;;;;5084409;28;20045;-73
2022/03/07 10:46:40;;;;;;;2.65;0.85;;;3.20;77.60;;;;;;5102904;28;20211;-73
2022/03/07 10:49:11;;;;;;;0.00;0.00;;;3.30;77.20;;;;;;5102433;28;20043;-74
2022/03/07 10:51:37;;;;;;;0.00;0.00;;;3.30;79.60;;;;;;5099124;28;20071;-72
2022/03/07 10:54:11;;;;;;;0.20;0.20;;;3.20;79.70;;;;;;5082519;28;20036;-77
2022/03/07 10:56:54;;;;;;;1.27;0.85;;;3.30;82.00;;;;;;5102847;28;20024;-73
2022/03/07 10:59:31;;;;;;;0.00;0.00;;;3.40;81.90;;;;;;5101942;28;20047;-73
2022/03/07 11:02:09;;;;;;;0.60;0.32;;;3.40;86.30;;;;;;5102890;28;20352;-74
2022/03/07 11:04:39;;;;;;;0.35;0.32;;;3.40;82.80;;;;;;5102301;28;20080;-71
2022/03/07 11:07:08;;;;;;;0.00;0.00;;;3.60;78.60;;;;;;5084003;28;20023;-72
2022/03/07 11:09:35;;;;;;;0.43;0.40;;;3.60;77.50;;;;;;5084637;28;20037;-72
2022/03/07 11:12:03;;;;;;;1.35;0.40;;;3.60;81.60;;;;;;5102563;28;20055;-73
2022/03/07 11:14:29;;;;;;;7.30;0.73;;;3.60;79.40;;;;;;5102660;28;20019;-71
2022/03/07 11:16:58;;;;;;;2.13;2.03;;;3.60;77.00;;;;;;5102233;28;20020;-73
2022/03/07 11:19:26;;;;;;;0.00;0.00;;;3.60;78.90;;;;;;5101975;28;20086;-72
2022/03/07 11:21:53;;;;;;;0.00;0.00;;;3.60;85.50;;;;;;5084492;28;20024;-73
2022/03/07 11:24:22;;;;;;;9.30;6.55;;;3.60;82.50;;;;;;5102149;28;20054;-73
2022/03/07 11:26:49;;;;;;;1.58;0.32;;;3.70;82.30;;;;;;5102396;28;20079;-73
2022/03/07 11:29:16;;;;;;;0.25;0.05;;;3.90;77.60;;;;;;5083911;28;20361;-71
2022/03/07 11:31:43;;;;;;;0.03;0.03;;;3.90;79.20;;;;;;5101184;28;20035;-72
2022/03/07 11:34:10;;;;;;;1.98;0.10;;;3.90;79.60;;;;;;5084117;28;20027;-72
2022/03/07 11:36:42;;;;;;;0.00;0.00;;;3.80;77.70;;;;;;5102507;28;20023;-72
2022/03/07 11:39:08;;;;;;;0.73;0.52;;;3.80;77.70;;;;;;5083650;28;20073;-71
2022/03/07 11:41:39;;;;;;;0.90;0.90;;;3.70;78.50;;;;;;5101987;28;20031;-74
2022/03/07 11:44:13;;;;;;;0.90;0.25;;;3.70;76.60;;;;;;5102363;28;20035;-84
2022/03/07 11:46:42;;;;;;;0.00;0.00;;;3.60;79.60;;;;;;5102412;28;20118;-71
2022/03/07 11:49:11;;;;;;;0.00;0.00;;;3.50;81.00;;;;;;5101813;28;20012;-71
2022/03/07 11:51:39;;;;;;;0.10;0.10;;;3.40;85.90;;;;;;5101790;28;20048;-71
2022/03/07 11:54:20;;;;;;;0.20;0.20;;;3.40;86.10;;;;;;5102199;28;20012;-70
2022/03/07 11:56:46;;;;;;;0.00;0.00;;;3.30;83.70;;;;;;5102371;28;20024;-73
2022/03/07 11:59:11;;;;;;;0.00;0.00;;;3.30;87.80;;;;;;5101614;28;20035;-71
2022/03/07 12:01:37;;;;;;;0.10;0.08;;;3.40;83.50;;;;;;5103109;28;20203;-71
2022/03/07 12:04:14;;;;;;;0.38;0.38;;;3.40;83.80;;;;;;5106113;28;20031;-71
2022/03/07 12:07:06;;;;;;;1.95;1.23;;;3.50;83.70;;;;;;5106202;28;20251;-72
2022/03/07 12:09:52;;;;;;;1.38;0.47;;;3.50;80.70;;;;;;5084168;28;20039;-72
2022/03/07 12:12:21;;;;;;;0.52;0.52;;;3.50;83.40;;;;;;5105216;28;20028;-71
2022/03/07 12:14:47;;;;;;;0.00;0.00;;;3.50;80.80;;;;;;5087583;28;20016;-71
2022/03/07 12:17:23;;;;;;;0.00;0.00;;;3.50;85.60;;;;;;5105414;28;20023;-72
2022/03/07 12:19:57;;;;;;;0.00;0.00;;;3.50;85.70;;;;;;5106073;28;20023;-71
2022/03/07 12:22:25;;;;;;;0.00;0.00;;;3.40;87.50;;;;;;5105403;28;20028;-71
2022/03/07 12:25:10;;;;;;;0.00;0.00;;;3.60;85.80;;;;;;5088114;28;20048;-71
2022/03/07 12:27:38;;;;;;;0.00;0.00;;;3.50;84.10;;;;;;5106196;28;20065;-71
2022/03/07 12:30:09;;;;;;;0.00;0.00;;;3.40;86.20;;;;;;5106166;28;20016;-71
2022/03/07 12:32:36;;;;;;;0.00;0.00;;;3.40;89.50;;;;;;5105799;28;20094;-72
2022/03/07 12:35:02;;;;;;;2.13;0.40;;;3.40;90.50;;;;;;5106078;28;20051;-70
2022/03/07 12:37:29;;;;;;;0.20;0.20;;;3.50;91.30;;;;;;5105117;28;20023;-71
2022/03/07 12:39:57;;;;;;;0.28;0.13;;;3.60;91.50;;;;;;5106053;28;20024;-71
2022/03/07 12:42:34;;;;;;;0.00;0.00;;;3.80;86.70;;;;;;5104956;28;20077;-73
2022/03/07 12:45:00;;;;;;;3.95;2.28;;;3.80;89.90;;;;;;5105651;28;20311;-72
2022/03/07 12:47:28;;;;;;;0.00;0.00;;;3.70;85.00;;;;;;5105162;28;20039;-73
2022/03/07 12:49:54;;;;;;;0.22;0.22;;;3.80;87.80;;;;;;5087160;28;20016;-72
2022/03/07 12:52:28;;;;;;;3.67;1.40;;;3.90;88.90;;;;;;5104669;28;20105;-73
2022/03/07 12:54:55;;;;;;;0.00;0.00;;;4.00;86.60;;;;;;5105484;28;20016;-72
2022/03/07 12:57:21;;;;;;;0.00;0.00;;;4.50;84.40;;;;;;5104830;28;20020;-72
2022/03/07 12:59:56;;;;;;;1.58;1.48;;;4.00;90.20;;;;;;5087204;28;20026;-71